createdAt,value
2022-09-17T00:01:31.141Z,99.20
2022-09-17T00:04:04.608Z,98.90
2022-09-17T00:06:34.738Z,98.80
2022-09-17T00:09:04.727Z,99.00
2022-09-17T00:11:35.010Z,99.10
2022-09-17T00:14:04.831Z,99.20
2022-09-17T00:16:34.956Z,99.20
2022-09-17T00:19:05.240Z,99.00
2022-09-17T00:21:34.160Z,98.80
2022-09-17T00:24:06.106Z,98.90
2022-09-17T00:26:36.800Z,99.00
2022-09-17T00:29:05.742Z,98.90
2022-09-17T00:31:34.363Z,98.60
2022-09-17T00:34:04.024Z,98.60
2022-09-17T00:36:32.674Z,98.30
2022-09-17T00:39:01.334Z,98.20
2022-09-17T00:41:33.466Z,98.00
2022-09-17T00:44:03.393Z,97.70
2022-09-17T00:46:35.670Z,97.40
2022-09-17T00:49:08.121Z,97.20
2022-09-17T00:51:39.232Z,96.70
2022-09-17T00:54:09.753Z,96.60
2022-09-17T00:56:43.486Z,96.70
2022-09-17T00:59:11.760Z,96.70
2022-09-17T01:01:39.767Z,96.50
2022-09-17T01:04:07.986Z,96.40
2022-09-17T01:06:40.786Z,96.40
2022-09-17T01:09:25.648Z,96.20
2022-09-17T01:12:18.465Z,96.40
2022-09-17T01:15:02.271Z,96.20
2022-09-17T01:17:38.155Z,95.80
2022-09-17T01:20:31.411Z,95.80
2022-09-17T01:23:24.087Z,95.70
2022-09-17T01:26:04.173Z,95.90
2022-09-17T01:28:43.994Z,95.50
2022-09-17T01:31:39.111Z,95.60
2022-09-17T01:34:20.263Z,95.40
2022-09-17T01:37:00.005Z,95.60
2022-09-17T01:39:34.560Z,95.80
2022-09-17T01:42:13.746Z,95.90
2022-09-17T01:44:47.826Z,96.20
2022-09-17T01:47:21.868Z,96.20
2022-09-17T01:49:52.492Z,96.30
2022-09-17T01:52:21.837Z,96.40
2022-09-17T01:54:54.208Z,96.40
2022-09-17T01:57:29.207Z,96.50
2022-09-17T02:00:01.847Z,96.60
2022-09-17T02:02:45.834Z,96.40
2022-09-17T02:05:19.460Z,96.70
2022-09-17T02:07:53.450Z,96.20
2022-09-17T02:10:26.988Z,95.70
2022-09-17T02:12:59.210Z,95.60
2022-09-17T02:15:31.043Z,95.50
2022-09-17T02:18:06.484Z,96.00
2022-09-17T02:20:40.790Z,96.00
2022-09-17T02:23:15.428Z,95.90
2022-09-17T02:25:49.760Z,96.10
2022-09-17T02:28:23.413Z,95.60
2022-09-17T02:30:51.531Z,95.90
2022-09-17T02:33:23.045Z,95.80
2022-09-17T02:35:51.221Z,96.10
2022-09-17T02:38:24.417Z,96.30
2022-09-17T02:40:58.618Z,96.40
2022-09-17T02:43:35.481Z,96.10
2022-09-17T02:46:16.319Z,96.40
2022-09-17T02:49:05.530Z,96.10
2022-09-17T02:51:42.577Z,96.10
2022-09-17T02:54:21.251Z,96.20
2022-09-17T02:56:55.509Z,96.40
2022-09-17T02:59:30.622Z,96.60
2022-09-17T03:02:04.836Z,96.30
2022-09-17T03:04:35.807Z,96.40
2022-09-17T03:07:08.958Z,96.50
2022-09-17T03:09:37.188Z,96.20
2022-09-17T03:12:05.586Z,96.70
2022-09-17T03:14:33.668Z,96.60
2022-09-17T03:17:01.823Z,96.60
2022-09-17T03:19:29.986Z,96.60
2022-09-17T03:21:59.688Z,96.10
2022-09-17T03:24:28.096Z,95.80
2022-09-17T03:26:55.996Z,95.90
2022-09-17T03:29:24.054Z,96.10
2022-09-17T03:31:52.060Z,96.10
2022-09-17T03:34:20.926Z,96.00
2022-09-17T03:36:48.916Z,96.20
2022-09-17T03:39:18.132Z,96.40
2022-09-17T03:41:46.002Z,96.50
2022-09-17T03:44:15.347Z,96.70
2022-09-17T03:46:43.515Z,96.80
2022-09-17T03:49:11.601Z,96.50
2022-09-17T03:51:39.563Z,96.50
2022-09-17T03:54:08.015Z,96.30
2022-09-17T03:56:37.274Z,96.40
2022-09-17T03:59:05.339Z,96.30
2022-09-17T04:01:33.357Z,96.20
2022-09-17T04:04:01.488Z,96.00
2022-09-17T04:06:29.486Z,95.90
2022-09-17T04:08:57.949Z,95.90
2022-09-17T04:11:25.870Z,95.90
2022-09-17T04:13:55.317Z,95.90
2022-09-17T04:16:23.292Z,96.00
2022-09-17T04:18:51.437Z,96.10
2022-09-17T04:21:19.383Z,96.00
2022-09-17T04:23:47.477Z,96.20
2022-09-17T04:26:15.686Z,95.90
2022-09-17T04:28:43.693Z,96.00
2022-09-17T04:31:13.110Z,96.00
2022-09-17T04:33:41.084Z,95.60
2022-09-17T04:36:08.984Z,95.80
2022-09-17T04:38:36.945Z,95.90
2022-09-17T04:41:07.920Z,96.10
2022-09-17T04:43:36.394Z,95.30
2022-09-17T04:46:04.678Z,95.70
2022-09-17T04:48:34.067Z,95.80
2022-09-17T04:51:02.039Z,95.70
2022-09-17T04:53:30.075Z,95.60
2022-09-17T04:55:58.086Z,96.10
2022-09-17T04:58:26.185Z,95.90
2022-09-17T05:00:54.218Z,96.20
2022-09-17T05:03:22.225Z,95.90
2022-09-17T05:05:51.524Z,95.70
2022-09-17T05:08:19.465Z,95.70
2022-09-17T05:10:47.422Z,95.80
2022-09-17T05:13:15.388Z,95.80
2022-09-17T05:15:43.453Z,95.80
2022-09-17T05:18:11.584Z,95.50
2022-09-17T05:20:39.701Z,95.40
2022-09-17T05:23:09.198Z,95.40
2022-09-17T05:25:37.186Z,95.50
2022-09-17T05:28:05.223Z,95.20
2022-09-17T05:30:33.175Z,95.10
2022-09-17T05:33:03.030Z,95.10
2022-09-17T05:35:31.494Z,95.00
2022-09-17T05:38:00.593Z,94.60
2022-09-17T05:40:30.812Z,94.90
2022-09-17T05:43:00.203Z,94.70
2022-09-17T05:45:28.505Z,94.70
2022-09-17T05:47:57.583Z,94.60
2022-09-17T05:50:26.399Z,94.50
2022-09-17T05:52:54.952Z,93.90
2022-09-17T05:55:24.710Z,93.70
2022-09-17T05:57:54.024Z,93.50
2022-09-17T06:00:22.258Z,93.00
2022-09-17T06:02:55.811Z,93.20
2022-09-17T06:05:23.943Z,93.40
2022-09-17T06:07:52.334Z,93.60
2022-09-17T06:10:20.212Z,93.60
2022-09-17T06:12:48.412Z,93.90
2022-09-17T06:15:17.737Z,93.20
2022-09-17T06:17:45.935Z,93.00
2022-09-17T06:20:14.065Z,92.70
2022-09-17T06:22:42.075Z,93.30
2022-09-17T06:25:10.418Z,93.70
2022-09-17T06:27:38.333Z,93.40
2022-09-17T06:30:07.542Z,93.30
2022-09-17T06:32:37.041Z,93.00
2022-09-17T06:35:05.509Z,93.00
2022-09-17T06:37:34.043Z,92.90
2022-09-17T06:40:02.355Z,92.90
2022-09-17T06:42:30.566Z,91.80
2022-09-17T06:45:00.392Z,91.90
2022-09-17T06:47:30.047Z,91.90
2022-09-17T06:49:59.878Z,91.30
2022-09-17T06:52:27.899Z,91.60
2022-09-17T06:54:56.450Z,91.50
2022-09-17T06:57:24.542Z,91.90
2022-09-17T06:59:52.527Z,92.00
2022-09-17T07:02:20.647Z,92.00
2022-09-17T07:04:48.654Z,91.70
2022-09-17T07:07:17.987Z,92.00
2022-09-17T07:09:46.055Z,92.30
2022-09-17T07:12:14.435Z,92.00
2022-09-17T07:14:42.527Z,91.50
2022-09-17T07:17:10.533Z,91.00
2022-09-17T07:19:38.889Z,90.40
2022-09-17T07:22:07.397Z,90.20
2022-09-17T07:24:36.785Z,89.80
2022-09-17T07:27:05.009Z,90.00
2022-09-17T07:29:32.990Z,90.40
2022-09-17T07:32:00.940Z,90.20
2022-09-17T07:34:29.135Z,89.90
2022-09-17T07:36:57.055Z,90.40
2022-09-17T07:39:25.034Z,89.40
2022-09-17T07:41:54.369Z,89.60
2022-09-17T07:44:22.675Z,90.10
2022-09-17T07:46:51.172Z,88.60
2022-09-17T07:49:19.620Z,89.60
2022-09-17T07:51:47.572Z,88.10
2022-09-17T07:54:15.468Z,88.30
2022-09-17T07:56:44.876Z,89.20
2022-09-17T07:59:14.502Z,89.00
2022-09-17T08:01:42.669Z,90.10
2022-09-17T08:04:10.753Z,90.00
2022-09-17T08:06:40.992Z,90.00
2022-09-17T08:09:10.783Z,88.40
2022-09-17T08:11:54.952Z,85.90
2022-09-17T08:14:29.407Z,86.70
2022-09-17T08:16:58.314Z,86.90
2022-09-17T08:19:28.559Z,84.60
2022-09-17T08:21:57.425Z,84.40
2022-09-17T08:24:25.535Z,85.00
2022-09-17T08:26:53.635Z,86.90
2022-09-17T08:29:21.556Z,87.50
2022-09-17T08:31:51.002Z,85.10
2022-09-17T08:34:18.973Z,85.30
2022-09-17T08:36:46.998Z,85.40
2022-09-17T08:39:15.129Z,86.00
2022-09-17T08:41:52.611Z,87.20
2022-09-17T08:44:26.007Z,86.10
2022-09-17T08:47:01.839Z,86.30
2022-09-17T08:49:36.144Z,86.70
2022-09-17T08:52:36.926Z,87.20
2022-09-17T08:55:15.238Z,87.00
2022-09-17T08:57:51.397Z,87.20
2022-09-17T09:00:20.602Z,87.30
2022-09-17T09:03:05.130Z,85.20
2022-09-17T09:05:43.222Z,85.60
2022-09-17T09:08:18.368Z,86.90
2022-09-17T09:10:51.858Z,87.50
2022-09-17T09:13:23.243Z,86.30
2022-09-17T09:15:56.591Z,87.90
2022-09-17T09:18:30.067Z,87.60
2022-09-17T09:21:09.018Z,87.10
2022-09-17T09:23:47.022Z,87.40
2022-09-17T09:26:19.189Z,86.50
2022-09-17T09:29:14.221Z,84.70
2022-09-17T09:32:15.509Z,84.10
2022-09-17T09:34:47.428Z,85.10
2022-09-17T09:37:19.223Z,84.70
2022-09-17T09:39:49.347Z,86.20
2022-09-17T09:42:24.684Z,86.80
2022-09-17T09:44:52.850Z,90.10
2022-09-17T09:47:39.280Z,91.60
2022-09-17T09:50:22.342Z,92.50
2022-09-17T09:53:00.137Z,93.30
2022-09-17T09:55:40.836Z,92.60
2022-09-17T09:58:18.878Z,93.10
2022-09-17T10:00:46.894Z,93.20
2022-09-17T10:03:19.371Z,93.60
2022-09-17T10:05:57.634Z,93.50
2022-09-17T10:08:26.746Z,93.70
2022-09-17T10:10:57.088Z,93.40
2022-09-17T10:13:26.406Z,93.40
2022-09-17T10:15:54.477Z,93.70
2022-09-17T10:18:24.454Z,92.80
2022-09-17T10:21:02.867Z,93.30
2022-09-17T10:23:37.609Z,92.80
2022-09-17T10:26:05.605Z,93.50
2022-09-17T10:28:38.147Z,92.90
2022-09-17T10:31:10.406Z,92.40
2022-09-17T10:33:52.641Z,93.80
2022-09-17T10:36:40.180Z,93.20
2022-09-17T10:39:36.688Z,93.00
2022-09-17T10:42:06.666Z,93.60
2022-09-17T10:44:36.759Z,92.80
2022-09-17T10:47:08.035Z,93.90
2022-09-17T10:49:42.590Z,94.80
2022-09-17T10:52:21.460Z,95.20
2022-09-17T10:55:27.585Z,95.30
2022-09-17T10:58:05.393Z,96.00
2022-09-17T11:00:45.130Z,97.00
2022-09-17T11:03:49.896Z,98.10
2022-09-17T11:06:39.135Z,98.10
2022-09-17T11:09:19.041Z,98.60
2022-09-17T11:11:58.167Z,98.40
2022-09-17T11:14:49.331Z,98.80
2022-09-17T11:17:44.281Z,99.30
2022-09-17T11:20:23.938Z,99.00
2022-09-17T11:23:05.020Z,99.50
2022-09-17T11:25:43.782Z,99.60
2022-09-17T11:28:26.782Z,99.50
2022-09-17T11:31:07.542Z,99.90
2022-09-17T11:33:54.493Z,99.90
2022-09-17T11:36:26.293Z,99.90
2022-09-17T11:38:58.814Z,99.90
2022-09-17T11:41:32.639Z,99.90
2022-09-17T11:44:09.095Z,99.90
2022-09-17T11:46:42.997Z,99.90
2022-09-17T11:49:22.087Z,99.80
2022-09-17T11:51:55.557Z,99.70
2022-09-17T11:54:29.315Z,99.50
2022-09-17T11:57:10.949Z,99.20
2022-09-17T11:59:43.713Z,98.70
2022-09-17T12:02:20.774Z,98.50
2022-09-17T12:04:55.058Z,99.20
2022-09-17T12:07:33.010Z,98.70
2022-09-17T12:10:12.853Z,98.60
2022-09-17T12:12:50.558Z,98.10
2022-09-17T12:15:23.089Z,97.70
2022-09-17T12:18:20.494Z,94.90
2022-09-17T12:20:50.684Z,94.70
2022-09-17T12:23:27.766Z,95.60
2022-09-17T12:26:02.665Z,94.00
2022-09-17T12:28:38.477Z,92.90
2022-09-17T12:31:13.197Z,93.60
2022-09-17T12:33:47.325Z,94.10
2022-09-17T12:36:28.110Z,93.20
2022-09-17T12:39:26.033Z,94.00
2022-09-17T12:42:03.340Z,91.70
2022-09-17T12:44:48.793Z,92.40
2022-09-17T12:47:39.125Z,91.20
2022-09-17T12:50:18.421Z,90.70
2022-09-17T12:53:02.466Z,90.80
2022-09-17T12:55:46.335Z,90.10
2022-09-17T12:58:29.311Z,88.90
2022-09-17T13:01:04.896Z,89.40
2022-09-17T13:03:38.675Z,89.10
2022-09-17T13:06:26.136Z,87.20
2022-09-17T13:09:18.541Z,86.40
2022-09-17T13:12:15.215Z,85.80
2022-09-17T13:15:04.756Z,87.10
2022-09-17T13:17:40.744Z,86.10
2022-09-17T13:20:17.160Z,84.70
2022-09-17T13:22:47.661Z,83.90
2022-09-17T13:25:18.270Z,84.70
2022-09-17T13:27:47.392Z,84.00
2022-09-17T13:30:16.933Z,83.60
2022-09-17T13:32:55.488Z,82.60
2022-09-17T13:35:50.033Z,81.20
2022-09-17T13:38:23.663Z,80.80
2022-09-17T13:40:53.014Z,81.20
2022-09-17T13:43:26.484Z,80.80
2022-09-17T13:46:11.290Z,82.20
2022-09-17T13:48:49.190Z,79.20
2022-09-17T13:51:55.118Z,78.70
2022-09-17T13:54:36.077Z,80.00
2022-09-17T13:57:16.063Z,78.60
2022-09-17T13:59:55.919Z,78.80
2022-09-17T14:02:36.229Z,78.30
2022-09-17T14:05:41.086Z,77.40
2022-09-17T14:08:30.541Z,77.50
2022-09-17T14:11:01.504Z,78.90
2022-09-17T14:13:42.584Z,78.10
2022-09-17T14:16:40.353Z,76.00
2022-09-17T14:19:24.416Z,76.30
2022-09-17T14:22:14.324Z,77.30
2022-09-17T14:24:51.218Z,80.00
2022-09-17T14:27:36.547Z,92.00
2022-09-17T14:30:20.344Z,94.60
2022-09-17T14:32:55.190Z,96.50
2022-09-17T14:35:27.554Z,94.60
2022-09-17T14:37:58.889Z,94.80
2022-09-17T14:40:29.472Z,95.00
2022-09-17T14:42:59.319Z,94.30
2022-09-17T14:45:30.440Z,93.80
2022-09-17T14:48:20.372Z,93.50
2022-09-17T14:50:48.429Z,92.10
2022-09-17T14:53:18.894Z,90.50
2022-09-17T14:55:50.131Z,91.10
2022-09-17T14:58:32.789Z,92.20
2022-09-17T15:01:01.685Z,90.10
2022-09-17T15:03:29.587Z,90.60
2022-09-17T15:05:57.677Z,85.70
2022-09-17T15:08:29.222Z,79.90
2022-09-17T15:11:02.465Z,78.50
2022-09-17T15:13:32.741Z,77.80
2022-09-17T15:16:03.813Z,77.30
2022-09-17T15:18:37.679Z,76.40
2022-09-17T15:21:12.252Z,73.30
2022-09-17T15:23:40.917Z,72.40
2022-09-17T15:26:10.577Z,71.40
2022-09-17T15:28:42.644Z,72.70
2022-09-17T15:31:17.354Z,73.20
2022-09-17T15:33:46.400Z,73.60
2022-09-17T15:36:21.398Z,74.40
2022-09-17T15:38:50.163Z,74.90
2022-09-17T15:41:34.804Z,75.80
2022-09-17T15:44:29.924Z,77.60
2022-09-17T15:47:32.596Z,78.30
2022-09-17T15:50:16.448Z,78.80
2022-09-17T15:52:44.815Z,79.40
2022-09-17T15:55:36.954Z,79.60
2022-09-17T15:58:20.379Z,79.70
2022-09-17T16:00:48.751Z,80.60
2022-09-17T16:04:08.514Z,81.00
2022-09-17T16:06:38.340Z,80.30
2022-09-17T16:09:38.241Z,81.10
2022-09-17T16:12:06.966Z,84.50
2022-09-17T16:14:36.600Z,90.40
2022-09-17T16:17:24.650Z,92.40
2022-09-17T16:19:52.802Z,94.30
2022-09-17T16:22:21.152Z,95.10
2022-09-17T16:24:49.325Z,95.50
2022-09-17T16:27:21.982Z,92.10
2022-09-17T16:29:53.398Z,91.80
2022-09-17T16:32:21.579Z,93.60
2022-09-17T16:34:49.562Z,95.10
2022-09-17T16:37:17.635Z,99.70
2022-09-17T16:39:45.674Z,99.90
2022-09-17T16:42:13.626Z,99.90
2022-09-17T16:44:41.756Z,99.90
2022-09-17T16:47:11.078Z,99.90
2022-09-17T16:49:39.097Z,99.70
2022-09-17T16:52:07.004Z,99.70
2022-09-17T16:54:35.208Z,98.80
2022-09-17T16:57:03.123Z,98.00
2022-09-17T16:59:31.066Z,98.50
2022-09-17T17:01:59.140Z,98.80
2022-09-17T17:04:29.078Z,98.20
2022-09-17T17:06:57.028Z,98.50
2022-09-17T17:09:24.987Z,98.40
2022-09-17T17:11:52.907Z,97.40
2022-09-17T17:14:20.970Z,97.50
2022-09-17T17:16:49.088Z,98.00
2022-09-17T17:19:17.716Z,97.90
2022-09-17T17:21:47.349Z,97.70
2022-09-17T17:24:15.538Z,97.50
2022-09-17T17:26:43.433Z,97.40
2022-09-17T17:29:11.567Z,97.90
2022-09-17T17:31:39.614Z,97.80
2022-09-17T17:34:08.616Z,97.30
2022-09-17T17:36:36.519Z,96.90
2022-09-17T17:39:05.947Z,96.80
2022-09-17T17:41:33.915Z,97.30
2022-09-17T17:44:01.942Z,97.30
2022-09-17T17:46:29.931Z,97.50
2022-09-17T17:48:58.128Z,97.20
2022-09-17T17:51:27.233Z,97.50
2022-09-17T17:53:55.231Z,97.40
2022-09-17T17:56:24.732Z,97.40
2022-09-17T17:58:56.411Z,97.70
2022-09-17T18:01:28.484Z,97.60
2022-09-17T18:03:58.359Z,98.10
2022-09-17T18:06:26.745Z,98.10
2022-09-17T18:08:55.158Z,98.10
2022-09-17T18:11:25.073Z,98.30
2022-09-17T18:13:54.459Z,98.50
2022-09-17T18:16:23.450Z,98.60
2022-09-17T18:18:51.876Z,98.90
2022-09-17T18:21:22.448Z,98.90
2022-09-17T18:23:51.123Z,98.90
2022-09-17T18:26:20.845Z,98.90
2022-09-17T18:28:50.946Z,98.90
2022-09-17T18:31:23.167Z,99.10
2022-09-17T18:33:51.828Z,99.00
2022-09-17T18:36:19.721Z,99.20
2022-09-17T18:38:47.684Z,99.10
2022-09-17T18:41:15.642Z,99.30
2022-09-17T18:43:43.568Z,99.40
2022-09-17T18:46:12.998Z,99.30
2022-09-17T18:48:41.192Z,99.20
2022-09-17T18:51:12.352Z,99.50
2022-09-17T18:53:40.773Z,99.60
2022-09-17T18:56:15.074Z,99.80
2022-09-17T18:58:43.074Z,99.20
2022-09-17T19:01:12.865Z,99.10
2022-09-17T19:03:41.083Z,99.30
2022-09-17T19:06:11.469Z,99.70
2022-09-17T19:08:40.910Z,99.90
2022-09-17T19:11:09.495Z,99.90
2022-09-17T19:13:38.950Z,99.90
2022-09-17T19:16:08.538Z,99.90
2022-09-17T19:18:38.340Z,99.90
2022-09-17T19:21:08.583Z,99.90
2022-09-17T19:23:36.903Z,99.40
2022-09-17T19:26:07.645Z,99.50
2022-09-17T19:28:36.487Z,98.90
2022-09-17T19:31:05.922Z,99.40
2022-09-17T19:33:34.235Z,99.00
2022-09-17T19:36:05.680Z,99.30
2022-09-17T19:38:34.633Z,99.10
2022-09-17T19:41:06.715Z,99.20
2022-09-17T19:43:34.982Z,99.40
2022-09-17T19:46:04.138Z,99.40
2022-09-17T19:48:32.500Z,99.50
2022-09-17T19:51:00.589Z,99.00
2022-09-17T19:53:29.910Z,98.70
2022-09-17T19:55:58.098Z,98.90
2022-09-17T19:58:26.111Z,99.20
2022-09-17T20:00:59.303Z,99.50
2022-09-17T20:03:27.534Z,99.00
2022-09-17T20:06:00.162Z,99.20
2022-09-17T20:08:30.093Z,99.00
2022-09-17T20:11:04.638Z,99.10
2022-09-17T20:13:32.682Z,99.50
2022-09-17T20:16:05.076Z,99.40
2022-09-17T20:18:33.220Z,99.50
2022-09-17T20:21:01.327Z,99.00
2022-09-17T20:23:32.878Z,99.10
2022-09-17T20:26:00.898Z,99.00
2022-09-17T20:28:28.903Z,99.10
2022-09-17T20:31:04.685Z,99.20
2022-09-17T20:33:32.999Z,99.00
2022-09-17T20:36:02.407Z,99.20
2022-09-17T20:41:20.942Z,99.00
2022-09-17T20:43:50.992Z,98.70
2022-09-17T20:46:24.772Z,98.70
2022-09-17T20:48:57.436Z,98.70
2022-09-17T20:51:27.773Z,98.70
2022-09-17T20:53:57.821Z,98.80
2022-09-17T20:56:27.943Z,99.00
2022-09-17T20:59:03.369Z,99.40
2022-09-17T21:01:34.679Z,99.60
2022-09-17T21:04:04.321Z,99.50
2022-09-17T21:06:34.318Z,99.20
2022-09-17T21:09:03.916Z,99.10
2022-09-17T21:11:32.276Z,99.40
2022-09-17T21:14:01.472Z,99.30
2022-09-17T21:16:30.157Z,99.40
2022-09-17T21:18:59.300Z,99.30
2022-09-17T21:21:28.092Z,99.30
2022-09-17T21:24:00.350Z,99.40
2022-09-17T21:26:30.004Z,99.40
2022-09-17T21:28:58.650Z,99.30
2022-09-17T21:31:32.355Z,99.20
2022-09-17T21:34:02.593Z,99.00
2022-09-17T21:36:33.632Z,99.20
2022-09-17T21:39:04.141Z,98.30
2022-09-17T21:41:35.757Z,98.70
2022-09-17T21:44:06.884Z,99.00
2022-09-17T21:46:36.905Z,98.60
2022-09-17T21:49:05.849Z,99.00
2022-09-17T21:51:37.308Z,98.70
2022-09-17T21:54:06.780Z,98.40
2022-09-17T21:56:36.294Z,98.20
2022-09-17T21:59:07.243Z,98.60
2022-09-17T22:01:39.939Z,98.20
2022-09-17T22:04:09.445Z,98.10
2022-09-17T22:06:38.184Z,98.30
2022-09-17T22:09:08.433Z,98.40
2022-09-17T22:11:39.076Z,98.20
2022-09-17T22:14:11.081Z,98.00
2022-09-17T22:16:40.855Z,97.90
2022-09-17T22:19:10.124Z,98.00
2022-09-17T22:21:40.779Z,97.70
2022-09-17T22:24:10.692Z,97.50
2022-09-17T22:26:43.375Z,97.40
2022-09-17T22:29:13.894Z,97.60
2022-09-17T22:31:42.764Z,97.20
2022-09-17T22:34:12.598Z,97.10
2022-09-17T22:36:41.156Z,97.40
2022-09-17T22:39:09.569Z,97.50
2022-09-17T22:41:44.265Z,97.20
2022-09-17T22:44:17.873Z,97.20
2022-09-17T22:46:47.937Z,97.20
2022-09-17T22:49:16.276Z,96.90
2022-09-17T22:51:46.649Z,97.10
2022-09-17T22:54:17.093Z,97.10
2022-09-17T22:56:47.681Z,97.20
2022-09-17T22:59:16.341Z,97.10
2022-09-17T23:01:44.435Z,96.50
2022-09-17T23:04:12.579Z,96.50
2022-09-17T23:06:42.041Z,96.70
2022-09-17T23:09:12.170Z,96.60
2022-09-17T23:11:40.679Z,96.40
2022-09-17T23:14:13.212Z,96.20
2022-09-17T23:16:43.775Z,96.10
2022-09-17T23:19:12.403Z,96.20
2022-09-17T23:21:40.995Z,96.70
2022-09-17T23:24:09.775Z,96.40
2022-09-17T23:26:38.031Z,96.10
2022-09-17T23:29:06.272Z,96.20
2022-09-17T23:31:36.055Z,95.90
2022-09-17T23:34:06.149Z,95.80
2022-09-17T23:36:36.617Z,95.60
2022-09-17T23:39:06.387Z,95.50
2022-09-17T23:41:36.081Z,95.20
2022-09-17T23:44:09.392Z,95.10
2022-09-17T23:46:42.012Z,95.70
2022-09-17T23:49:12.938Z,95.90
2022-09-17T23:51:41.454Z,95.90
2022-09-17T23:54:12.403Z,95.80
2022-09-17T23:56:41.285Z,95.70
2022-09-17T23:59:10.977Z,96.10
